createdAt,value
2023-03-12T00:00:12.903Z,100664.59
2023-03-12T00:02:39.742Z,100662.84
2023-03-12T00:05:07.146Z,100661.03
2023-03-12T00:07:36.307Z,100662.69
2023-03-12T00:10:05.608Z,100658.28
2023-03-12T00:12:32.465Z,100657.38
2023-03-12T00:14:59.628Z,100662.59
2023-03-12T00:17:26.459Z,100659.94
2023-03-12T00:19:55.322Z,100666.03
2023-03-12T00:22:23.033Z,100667.72
2023-03-12T00:24:55.109Z,100674.69
2023-03-12T00:27:23.386Z,100673.72
2023-03-12T00:29:50.198Z,100666.78
2023-03-12T00:32:17.129Z,100670.19
2023-03-12T00:34:44.235Z,100677.22
2023-03-12T00:37:11.210Z,100664.16
2023-03-12T00:39:38.054Z,100659.75
2023-03-12T00:42:05.028Z,100661.50
2023-03-12T00:44:32.376Z,100667.59
2023-03-12T00:46:59.226Z,100659.75
2023-03-12T00:49:26.421Z,100662.38
2023-03-12T00:51:54.041Z,100655.41
2023-03-12T00:54:21.519Z,100652.78
2023-03-12T00:56:48.859Z,100648.41
2023-03-12T00:59:16.391Z,100651.00
2023-03-12T01:01:44.938Z,100652.78
2023-03-12T01:04:12.094Z,100646.63
2023-03-12T01:06:38.895Z,100640.50
2023-03-12T01:09:07.956Z,100644.84
2023-03-12T01:11:36.230Z,100640.50
2023-03-12T01:14:05.177Z,100644.84
2023-03-12T01:16:32.084Z,100637.88
2023-03-12T01:19:01.701Z,100643.09
2023-03-12T01:21:30.103Z,100648.31
2023-03-12T01:23:58.508Z,100644.72
2023-03-12T01:26:25.757Z,100652.56
2023-03-12T01:28:52.574Z,100657.78
2023-03-12T01:31:20.115Z,100647.34
2023-03-12T01:33:51.962Z,100650.84
2023-03-12T01:36:29.030Z,100653.38
2023-03-12T01:38:58.705Z,100647.25
2023-03-12T01:41:28.183Z,100656.72
2023-03-12T01:43:55.059Z,100650.59
2023-03-12T01:46:43.027Z,100655.72
2023-03-12T01:49:15.371Z,100648.66
2023-03-12T01:51:59.820Z,100643.34
2023-03-12T01:54:39.138Z,100647.66
2023-03-12T01:57:12.936Z,100645.84
2023-03-12T01:59:52.881Z,100642.28
2023-03-12T02:02:31.200Z,100637.88
2023-03-12T02:05:13.612Z,100642.19
2023-03-12T02:07:40.404Z,100639.41
2023-03-12T02:10:07.390Z,100639.41
2023-03-12T02:12:34.138Z,100628.91
2023-03-12T02:15:01.147Z,100632.41
2023-03-12T02:17:27.973Z,100636.75
2023-03-12T02:20:32.443Z,100635.75
2023-03-12T02:23:26.698Z,100637.34
2023-03-12T02:25:54.447Z,100633.69
2023-03-12T02:28:24.616Z,100634.50
2023-03-12T02:30:54.272Z,100635.47
2023-03-12T02:33:21.054Z,100643.34
2023-03-12T02:35:48.722Z,100634.75
2023-03-12T02:38:42.274Z,100640.06
2023-03-12T02:41:24.374Z,100631.34
2023-03-12T02:44:01.424Z,100642.81
2023-03-12T02:46:33.588Z,100636.63
2023-03-12T02:49:01.127Z,100644.47
2023-03-12T02:51:27.887Z,100650.63
2023-03-12T02:53:57.673Z,100652.28
2023-03-12T02:56:27.253Z,100646.09
2023-03-12T02:58:54.500Z,100653.84
2023-03-12T03:01:21.675Z,100645.09
2023-03-12T03:03:48.741Z,100639.72
2023-03-12T03:06:16.325Z,100647.56
2023-03-12T03:08:43.499Z,100638.81
2023-03-12T03:11:10.281Z,100646.56
2023-03-12T03:13:37.102Z,100642.25
2023-03-12T03:16:04.407Z,100645.75
2023-03-12T03:18:31.588Z,100641.41
2023-03-12T03:21:04.617Z,100644.94
2023-03-12T03:23:32.295Z,100644.84
2023-03-12T03:25:59.594Z,100643.94
2023-03-12T03:28:29.211Z,100639.53
2023-03-12T03:31:00.794Z,100638.63
2023-03-12T03:33:29.168Z,100643.78
2023-03-12T03:35:59.327Z,100646.38
2023-03-12T03:38:28.587Z,100642.84
2023-03-12T03:40:55.798Z,100640.28
2023-03-12T03:43:24.124Z,100639.38
2023-03-12T03:46:03.348Z,100646.38
2023-03-12T03:48:30.374Z,100637.69
2023-03-12T03:51:01.951Z,100639.47
2023-03-12T03:53:28.988Z,100646.38
2023-03-12T03:55:55.783Z,100653.38
2023-03-12T03:58:23.000Z,100647.28
2023-03-12T04:00:49.787Z,100640.34
2023-03-12T04:03:16.644Z,100642.88
2023-03-12T04:05:46.288Z,100646.38
2023-03-12T04:08:13.700Z,100644.75
2023-03-12T04:10:41.073Z,100648.16
2023-03-12T04:13:07.871Z,100638.66
2023-03-12T04:15:34.659Z,100636.19
2023-03-12T04:18:01.462Z,100640.63
2023-03-12T04:20:28.297Z,100638.09
2023-03-12T04:22:55.056Z,100645.09
2023-03-12T04:25:21.823Z,100642.50
2023-03-12T04:27:48.616Z,100643.47
2023-03-12T04:30:15.471Z,100645.19
2023-03-12T04:32:42.317Z,100640.88
2023-03-12T04:35:09.268Z,100643.50
2023-03-12T04:37:36.133Z,100646.97
2023-03-12T04:40:07.389Z,100635.66
2023-03-12T04:42:35.631Z,100646.84
2023-03-12T04:45:04.562Z,100643.34
2023-03-12T04:47:32.917Z,100643.22
2023-03-12T04:50:00.214Z,100644.84
2023-03-12T04:52:27.528Z,100646.56
2023-03-12T04:54:55.071Z,100638.66
2023-03-12T04:57:22.230Z,100638.66
2023-03-12T04:59:49.106Z,100643.06
2023-03-12T05:02:15.885Z,100647.38
2023-03-12T05:04:42.686Z,100643.06
2023-03-12T05:07:09.533Z,100642.16
2023-03-12T05:09:36.375Z,100643.13
2023-03-12T05:12:03.304Z,100637.03
2023-03-12T05:14:30.120Z,100638.84
2023-03-12T05:16:56.887Z,100636.31
2023-03-12T05:19:23.687Z,100639.88
2023-03-12T05:21:50.468Z,100642.50
2023-03-12T05:24:17.951Z,100638.19
2023-03-12T05:26:44.808Z,100632.16
2023-03-12T05:29:11.580Z,100633.97
2023-03-12T05:31:38.433Z,100636.63
2023-03-12T05:34:05.839Z,100628.09
2023-03-12T05:36:32.585Z,100636.97
2023-03-12T05:38:59.354Z,100622.38
2023-03-12T05:41:28.975Z,100625.19
2023-03-12T05:43:57.831Z,100621.00
2023-03-12T05:46:26.985Z,100616.84
2023-03-12T05:48:54.386Z,100618.72
2023-03-12T05:51:21.649Z,100625.91
2023-03-12T05:53:48.416Z,100617.28
2023-03-12T05:56:19.004Z,100616.59
2023-03-12T05:58:49.726Z,100611.53
2023-03-12T06:01:28.996Z,100606.47
2023-03-12T06:03:56.213Z,100603.91
2023-03-12T06:06:23.463Z,100595.34
2023-03-12T06:08:51.335Z,100595.44
2023-03-12T06:11:18.292Z,100599.09
2023-03-12T06:13:45.057Z,100596.56
2023-03-12T06:16:21.565Z,100602.84
2023-03-12T06:18:48.941Z,100592.53
2023-03-12T06:21:19.397Z,100577.00
2023-03-12T06:23:47.273Z,100580.69
2023-03-12T06:26:15.314Z,100581.78
2023-03-12T06:28:42.777Z,100568.00
2023-03-12T06:31:09.904Z,100576.94
2023-03-12T06:33:36.916Z,100566.63
2023-03-12T06:36:06.615Z,100574.66
2023-03-12T06:38:34.560Z,100570.44
2023-03-12T06:41:11.220Z,100568.84
2023-03-12T06:43:39.659Z,100557.63
2023-03-12T06:46:09.868Z,100557.78
2023-03-12T06:48:37.243Z,100566.69
2023-03-12T06:51:04.776Z,100570.34
2023-03-12T06:53:32.539Z,100566.97
2023-03-12T06:55:59.663Z,100562.78
2023-03-12T06:58:26.754Z,100573.38
2023-03-12T07:00:54.060Z,100573.56
2023-03-12T07:03:21.685Z,100569.38
2023-03-12T07:05:50.760Z,100571.22
2023-03-12T07:08:18.694Z,100570.47
2023-03-12T07:10:46.239Z,100560.13
2023-03-12T07:13:13.264Z,100558.56
2023-03-12T07:15:40.623Z,100566.56
2023-03-12T07:18:12.100Z,100565.03
2023-03-12T07:20:42.939Z,100560.94
2023-03-12T07:23:10.988Z,100562.00
2023-03-12T07:25:40.821Z,100556.91
2023-03-12T07:28:08.681Z,100544.81
2023-03-12T07:30:36.215Z,100544.03
2023-03-12T07:33:06.387Z,100543.22
2023-03-12T07:35:33.587Z,100539.81
2023-03-12T07:38:01.907Z,100535.53
2023-03-12T07:40:30.202Z,100542.69
2023-03-12T07:42:57.156Z,100539.38
2023-03-12T07:45:24.883Z,100538.66
2023-03-12T07:47:52.015Z,100547.59
2023-03-12T07:50:19.829Z,100546.91
2023-03-12T07:52:47.945Z,100541.94
2023-03-12T07:55:16.332Z,100540.53
2023-03-12T07:57:43.237Z,100547.94
2023-03-12T08:00:11.195Z,100551.81
2023-03-12T08:02:38.841Z,100548.59
2023-03-12T08:05:06.478Z,100545.34
2023-03-12T08:07:35.061Z,100534.22
2023-03-12T08:10:04.264Z,100539.66
2023-03-12T08:12:31.156Z,100538.94
2023-03-12T08:14:58.017Z,100536.50
2023-03-12T08:17:25.068Z,100520.91
2023-03-12T08:19:51.991Z,100521.88
2023-03-12T08:22:18.795Z,100511.44
2023-03-12T08:24:45.549Z,100507.16
2023-03-12T08:27:12.381Z,100498.44
2023-03-12T08:29:40.685Z,100502.88
2023-03-12T08:32:08.233Z,100504.69
2023-03-12T08:34:35.511Z,100505.63
2023-03-12T08:37:03.282Z,100503.97
2023-03-12T08:39:30.321Z,100506.72
2023-03-12T08:41:57.088Z,100509.44
2023-03-12T08:44:24.710Z,100512.19
2023-03-12T08:46:52.605Z,100516.63
2023-03-12T08:49:20.588Z,100512.25
2023-03-12T08:51:47.710Z,100515.78
2023-03-12T08:54:14.785Z,100514.88
2023-03-12T08:56:44.432Z,100519.31
2023-03-12T08:59:12.712Z,100522.91
2023-03-12T09:01:43.060Z,100520.34
2023-03-12T09:04:15.014Z,100512.53
2023-03-12T09:06:41.977Z,100507.41
2023-03-12T09:09:09.013Z,100513.66
2023-03-12T09:11:39.539Z,100508.41
2023-03-12T09:16:53.449Z,100503.25
2023-03-12T09:19:20.977Z,100503.34
2023-03-12T09:21:47.724Z,100499.00
2023-03-12T09:24:14.566Z,100506.94
2023-03-12T09:26:41.463Z,100505.19
2023-03-12T09:29:08.293Z,100499.16
2023-03-12T09:31:36.362Z,100495.72
2023-03-12T09:34:04.705Z,100494.03
2023-03-12T09:36:31.833Z,100497.59
2023-03-12T09:38:58.813Z,100500.34
2023-03-12T09:41:29.750Z,100502.19
2023-03-12T09:44:04.061Z,100497.91
2023-03-12T09:46:44.958Z,100495.44
2023-03-12T09:49:34.923Z,100493.75
2023-03-12T09:52:11.794Z,100485.00
2023-03-12T09:54:49.527Z,100476.28
2023-03-12T09:57:24.205Z,100472.75
2023-03-12T09:59:52.254Z,100450.84
2023-03-12T10:02:57.776Z,100448.31
2023-03-12T10:05:41.294Z,100459.81
2023-03-12T10:08:30.535Z,100444.13
2023-03-12T10:11:08.206Z,100442.47
2023-03-12T10:13:40.985Z,100442.53
2023-03-12T10:16:26.931Z,100446.13
2023-03-12T10:19:05.749Z,100436.47
2023-03-12T10:21:50.219Z,100429.44
2023-03-12T10:24:45.716Z,100434.69
2023-03-12T10:27:16.693Z,100421.50
2023-03-12T10:29:51.065Z,100410.09
2023-03-12T10:32:24.333Z,100415.38
2023-03-12T10:35:13.977Z,100397.81
2023-03-12T10:37:47.816Z,100394.31
2023-03-12T10:40:17.342Z,100387.28
2023-03-12T10:42:44.386Z,100381.16
2023-03-12T10:45:11.074Z,100375.88
2023-03-12T10:47:57.165Z,100382.06
2023-03-12T10:50:28.304Z,100367.09
2023-03-12T10:53:32.943Z,100365.38
2023-03-12T10:56:01.180Z,100355.69
2023-03-12T10:58:38.517Z,100370.66
2023-03-12T11:01:28.552Z,100363.63
2023-03-12T11:04:25.604Z,100355.69
2023-03-12T11:07:06.329Z,100360.97
2023-03-12T11:09:33.136Z,100366.25
2023-03-12T11:11:59.900Z,100357.47
2023-03-12T11:14:29.711Z,100353.06
2023-03-12T11:17:19.843Z,100350.44
2023-03-12T11:19:46.612Z,100353.97
2023-03-12T11:22:15.938Z,100354.84
2023-03-12T11:25:27.232Z,100352.19
2023-03-12T11:27:59.687Z,100350.44
2023-03-12T11:30:37.080Z,100352.16
2023-03-12T11:33:04.211Z,100356.50
2023-03-12T11:35:44.401Z,100350.34
2023-03-12T11:38:31.839Z,100339.75
2023-03-12T11:41:25.349Z,100329.16
2023-03-12T11:44:28.772Z,100323.00
2023-03-12T11:47:18.632Z,100315.09
2023-03-12T11:50:08.511Z,100306.31
2023-03-12T11:53:07.118Z,100314.22
2023-03-12T11:55:43.742Z,100301.03
2023-03-12T11:58:26.833Z,100291.38
2023-03-12T12:01:22.298Z,100287.88
2023-03-12T12:04:04.803Z,100286.97
2023-03-12T12:06:53.175Z,100289.66
2023-03-12T12:09:57.399Z,100283.50
2023-03-12T12:12:51.286Z,100273.81
2023-03-12T12:15:58.812Z,100265.03
2023-03-12T12:18:58.613Z,100255.34
2023-03-12T12:21:46.026Z,100241.25
2023-03-12T12:24:39.115Z,100252.66
2023-03-12T12:27:20.646Z,100242.13
2023-03-12T12:30:19.243Z,100237.72
2023-03-12T12:33:27.856Z,100232.41
2023-03-12T12:35:54.691Z,100227.13
2023-03-12T12:38:35.772Z,100233.28
2023-03-12T12:41:26.414Z,100235.88
2023-03-12T12:44:02.157Z,100251.66
2023-03-12T12:46:36.092Z,100242.84
2023-03-12T12:49:28.340Z,100231.41
2023-03-12T12:52:01.079Z,100231.34
2023-03-12T12:54:47.155Z,100234.81
2023-03-12T12:57:24.920Z,100227.75
2023-03-12T13:00:39.753Z,100216.34
2023-03-12T13:03:07.295Z,100218.06
2023-03-12T13:05:36.985Z,100204.91
2023-03-12T13:08:08.627Z,100197.88
2023-03-12T13:10:35.355Z,100192.63
2023-03-12T13:13:29.385Z,100190.88
2023-03-12T13:16:36.369Z,100199.63
2023-03-12T13:19:21.481Z,100199.63
2023-03-12T13:22:10.628Z,100189.09
2023-03-12T13:24:55.597Z,100193.47
2023-03-12T13:27:42.640Z,100184.69
2023-03-12T13:30:34.473Z,100178.53
2023-03-12T13:33:03.786Z,100183.81
2023-03-12T13:35:41.570Z,100175.00
2023-03-12T13:38:18.644Z,100165.31
2023-03-12T13:40:51.456Z,100165.25
2023-03-12T13:43:37.821Z,100161.72
2023-03-12T13:46:16.844Z,100154.69
2023-03-12T13:48:48.954Z,100142.38
2023-03-12T13:51:22.306Z,100143.25
2023-03-12T13:53:54.816Z,100133.56
2023-03-12T13:56:28.903Z,100130.97
2023-03-12T13:59:05.093Z,100131.81
2023-03-12T14:01:39.365Z,100132.69
2023-03-12T14:04:17.010Z,100136.19
2023-03-12T14:07:28.668Z,100144.06
2023-03-12T14:10:47.829Z,100134.41
2023-03-12T14:13:51.547Z,100125.59
2023-03-12T14:16:28.264Z,100122.09
2023-03-12T14:18:55.241Z,100121.22
2023-03-12T14:21:23.687Z,100120.38
2023-03-12T14:23:57.821Z,100109.00
2023-03-12T14:26:28.235Z,100122.19
2023-03-12T14:29:01.586Z,100109.00
2023-03-12T14:31:30.901Z,100105.50
2023-03-12T14:34:20.654Z,100107.25
2023-03-12T14:37:16.409Z,100094.97
2023-03-12T14:40:44.204Z,100105.47
2023-03-12T14:43:42.466Z,100114.22
2023-03-12T14:46:24.376Z,100113.34
2023-03-12T14:48:55.428Z,100103.69
2023-03-12T14:51:28.886Z,100100.16
2023-03-12T14:53:57.328Z,100095.78
2023-03-12T14:56:33.304Z,100094.03
2023-03-12T14:59:22.985Z,100091.41
2023-03-12T15:01:50.273Z,100092.28
2023-03-12T15:04:21.145Z,100094.91
2023-03-12T15:06:51.274Z,100091.41
2023-03-12T15:09:29.141Z,100091.41
2023-03-12T15:12:00.256Z,100086.19
2023-03-12T15:14:30.469Z,100080.06
2023-03-12T15:16:59.406Z,100075.69
2023-03-12T15:19:33.622Z,100082.72
2023-03-12T15:22:01.130Z,100084.47
2023-03-12T15:24:30.498Z,100078.31
2023-03-12T15:26:57.338Z,100072.22
2023-03-12T15:29:27.930Z,100073.09
2023-03-12T15:31:58.303Z,100070.47
2023-03-12T15:34:37.547Z,100064.38
2023-03-12T15:37:38.042Z,100065.22
2023-03-12T15:40:22.484Z,100057.28
2023-03-12T15:42:50.044Z,100054.66
2023-03-12T15:45:21.965Z,100065.16
2023-03-12T15:47:50.919Z,100068.69
2023-03-12T15:50:43.554Z,100066.94
2023-03-12T15:53:16.381Z,100066.06
2023-03-12T15:56:09.395Z,100058.16
2023-03-12T15:58:40.168Z,100061.66
2023-03-12T16:01:23.814Z,100056.38
2023-03-12T16:03:50.660Z,100069.50
2023-03-12T16:06:27.931Z,100073.00
2023-03-12T16:09:06.108Z,100069.50
2023-03-12T16:11:36.206Z,100063.38
2023-03-12T16:14:20.424Z,100061.59
2023-03-12T16:16:47.567Z,100061.56
2023-03-12T16:19:16.859Z,100070.34
2023-03-12T16:21:44.381Z,100063.31
2023-03-12T16:24:11.462Z,100058.06
2023-03-12T16:26:53.606Z,100058.09
2023-03-12T16:29:21.672Z,100056.34
2023-03-12T16:31:55.382Z,100064.25
2023-03-12T16:34:22.660Z,100062.47
2023-03-12T16:36:49.611Z,100064.25
2023-03-12T16:39:18.753Z,100059.00
2023-03-12T16:41:46.365Z,100066.91
2023-03-12T16:44:19.980Z,100060.78
2023-03-12T16:46:47.195Z,100067.78
2023-03-12T16:49:16.250Z,100066.03
2023-03-12T16:51:43.281Z,100068.69
2023-03-12T16:54:12.008Z,100066.06
2023-03-12T16:56:43.841Z,100066.06
2023-03-12T16:59:25.916Z,100068.69
2023-03-12T17:01:52.961Z,100073.09
2023-03-12T17:04:19.987Z,100073.97
2023-03-12T17:06:46.843Z,100071.34
2023-03-12T17:09:13.735Z,100066.97
2023-03-12T17:11:40.901Z,100070.47
2023-03-12T17:14:18.924Z,100063.47
2023-03-12T17:16:45.811Z,100069.59
2023-03-12T17:19:12.621Z,100073.13
2023-03-12T17:21:40.058Z,100083.66
2023-03-12T17:24:07.274Z,100078.38
2023-03-12T17:26:35.292Z,100074.00
2023-03-12T17:29:02.269Z,100082.78
2023-03-12T17:31:29.143Z,100080.16
2023-03-12T17:33:56.403Z,100091.56
2023-03-12T17:36:23.197Z,100088.97
2023-03-12T17:38:51.051Z,100086.34
2023-03-12T17:41:25.975Z,100082.81
2023-03-12T17:43:55.073Z,100083.69
2023-03-12T17:46:22.031Z,100081.06
2023-03-12T17:48:48.855Z,100082.84
2023-03-12T17:51:15.637Z,100076.69
2023-03-12T17:53:42.468Z,100074.94
2023-03-12T17:56:12.278Z,100071.41
2023-03-12T17:58:39.271Z,100060.00
2023-03-12T18:01:06.073Z,100061.78
2023-03-12T18:03:32.943Z,100079.34
2023-03-12T18:05:59.936Z,100076.69
2023-03-12T18:08:26.718Z,100082.84
2023-03-12T18:10:53.521Z,100084.59
2023-03-12T18:13:20.363Z,100081.97
2023-03-12T18:15:57.292Z,100093.38
2023-03-12T18:18:26.475Z,100089.88
2023-03-12T18:20:53.761Z,100098.63
2023-03-12T18:23:20.738Z,100098.63
2023-03-12T18:25:48.639Z,100101.28
2023-03-12T18:28:15.533Z,100090.75
2023-03-12T18:30:47.480Z,100095.16
2023-03-12T18:33:14.909Z,100091.63
2023-03-12T18:35:43.954Z,100077.59
2023-03-12T18:38:10.918Z,100078.50
2023-03-12T18:40:37.766Z,100070.59
2023-03-12T18:43:04.738Z,100092.56
2023-03-12T18:45:31.578Z,100085.53
2023-03-12T18:47:58.520Z,100096.06
2023-03-12T18:50:25.328Z,100097.81
2023-03-12T18:52:52.132Z,100095.22
2023-03-12T18:55:18.987Z,100102.22
2023-03-12T18:57:47.531Z,100093.44
2023-03-12T19:00:19.641Z,100089.97
2023-03-12T19:02:50.181Z,100096.97
2023-03-12T19:05:17.194Z,100097.84
2023-03-12T19:07:44.550Z,100090.81
2023-03-12T19:10:13.198Z,100102.22
2023-03-12T19:12:51.718Z,100096.94
2023-03-12T19:15:21.465Z,100094.31
2023-03-12T19:17:48.334Z,100095.16
2023-03-12T19:20:15.571Z,100105.66
2023-03-12T19:22:42.403Z,100097.75
2023-03-12T19:25:10.361Z,100091.59
2023-03-12T19:27:37.132Z,100105.66
2023-03-12T19:30:04.635Z,100099.50
2023-03-12T19:32:42.265Z,100108.28
2023-03-12T19:35:11.840Z,100109.16
2023-03-12T19:37:38.676Z,100101.28
2023-03-12T19:40:06.696Z,100099.50
2023-03-12T19:42:33.937Z,100100.41
2023-03-12T19:45:00.725Z,100090.78
2023-03-12T19:47:28.009Z,100088.13
2023-03-12T19:49:54.804Z,100081.97
2023-03-12T19:52:21.614Z,100090.75
2023-03-12T19:55:01.482Z,100079.34
2023-03-12T19:57:31.552Z,100081.09
2023-03-12T19:59:58.777Z,100078.44
2023-03-12T20:02:26.251Z,100072.28
2023-03-12T20:04:53.294Z,100075.78
2023-03-12T20:07:20.060Z,100075.78
2023-03-12T20:09:46.840Z,100059.13
2023-03-12T20:12:13.669Z,100062.66
2023-03-12T20:14:42.639Z,100061.78
2023-03-12T20:17:11.055Z,100061.78
2023-03-12T20:19:38.796Z,100059.16
2023-03-12T20:22:06.517Z,100044.25
2023-03-12T20:24:33.309Z,100050.38
2023-03-12T20:27:00.135Z,100048.63
2023-03-12T20:29:26.916Z,100059.16
2023-03-12T20:31:53.785Z,100061.81
2023-03-12T20:34:20.692Z,100067.06
2023-03-12T20:36:47.538Z,100071.50
2023-03-12T20:39:14.346Z,100076.78
2023-03-12T20:41:41.186Z,100081.19
2023-03-12T20:44:07.960Z,100077.69
2023-03-12T20:46:34.787Z,100084.72
2023-03-12T20:49:01.559Z,100082.06
2023-03-12T20:51:28.324Z,100094.41
2023-03-12T20:53:55.141Z,100093.53
2023-03-12T20:56:21.920Z,100091.78
2023-03-12T20:58:48.677Z,100090.03
2023-03-12T21:01:15.527Z,100089.16
2023-03-12T21:03:42.386Z,100089.16
2023-03-12T21:06:09.182Z,100088.28
2023-03-12T21:08:36.056Z,100079.50
2023-03-12T21:11:06.628Z,100083.03
2023-03-12T21:13:33.694Z,100086.53
2023-03-12T21:16:00.487Z,100079.50
2023-03-12T21:18:28.874Z,100076.00
2023-03-12T21:21:04.776Z,100080.41
2023-03-12T21:23:32.403Z,100079.53
2023-03-12T21:26:02.285Z,100076.00
2023-03-12T21:28:29.630Z,100073.38
2023-03-12T21:31:04.218Z,100068.13
2023-03-12T21:33:31.060Z,100074.28
2023-03-12T21:35:57.879Z,100068.97
2023-03-12T21:38:24.743Z,100066.38
2023-03-12T21:40:54.079Z,100065.47
2023-03-12T21:43:20.958Z,100061.94
2023-03-12T21:45:47.754Z,100061.94
2023-03-12T21:48:14.529Z,100054.94
2023-03-12T21:50:41.370Z,100041.75
2023-03-12T21:53:22.825Z,100046.16
2023-03-12T21:56:01.501Z,100039.13
2023-03-12T21:58:30.552Z,100036.47
2023-03-12T22:01:12.933Z,100044.38
2023-03-12T22:03:40.701Z,100034.75
2023-03-12T22:06:08.058Z,100030.31
2023-03-12T22:08:36.181Z,100032.09
2023-03-12T22:11:04.093Z,100018.03
2023-03-12T22:13:31.057Z,100025.94
2023-03-12T22:16:08.054Z,100019.81
2023-03-12T22:18:43.648Z,100023.31
2023-03-12T22:21:19.208Z,100016.28
2023-03-12T22:23:50.952Z,100005.75
2023-03-12T22:26:19.551Z,100003.97
2023-03-12T22:28:51.406Z,100010.16
2023-03-12T22:31:19.623Z,100007.47
2023-03-12T22:33:47.014Z,100011.00
2023-03-12T22:36:15.378Z,100011.00
2023-03-12T22:38:42.577Z,99997.84
2023-03-12T22:41:23.283Z,100002.22
2023-03-12T22:43:53.556Z,99995.19
2023-03-12T22:46:22.855Z,99978.47
2023-03-12T22:48:55.340Z,99985.50
2023-03-12T22:51:23.333Z,99983.75
2023-03-12T22:53:50.283Z,99980.25
2023-03-12T22:56:17.927Z,99980.25
2023-03-12T22:58:44.974Z,99976.72
2023-03-12T23:01:18.961Z,99975.81
2023-03-12T23:03:46.741Z,99967.03
2023-03-12T23:06:22.848Z,99961.75
2023-03-12T23:08:51.129Z,99963.50
2023-03-12T23:11:19.558Z,99957.34
2023-03-12T23:13:48.088Z,99956.47
2023-03-12T23:16:19.287Z,99952.06
2023-03-12T23:18:47.182Z,99954.72
2023-03-12T23:21:21.354Z,99941.53
2023-03-12T23:23:49.599Z,99943.28
2023-03-12T23:26:24.257Z,99937.13
2023-03-12T23:28:53.288Z,99936.25
2023-03-12T23:31:21.136Z,99930.09
2023-03-12T23:33:48.102Z,99925.66
2023-03-12T23:36:18.620Z,99923.00
2023-03-12T23:38:47.132Z,99920.38
2023-03-12T23:41:24.204Z,99922.13
2023-03-12T23:43:52.162Z,99910.69
2023-03-12T23:46:20.079Z,99905.38
2023-03-12T23:48:47.197Z,99902.72
2023-03-12T23:51:27.418Z,99894.81
2023-03-12T23:54:00.875Z,99900.06
2023-03-12T23:56:34.095Z,99894.75
2023-03-12T23:59:01.060Z,99897.41
